Terminal Aerodrome Forecast
Issued by NWS Pittsburgh, PA

Current Version | Previous Version | Graphics & Text | Print | Product List | Glossary On
Versions: 1 2 3 4 5 6 7 8 9 10 11 12 13 14 15 16 17 18 19 20 21 22 23 24 25 26 27 28 29 30
894
FTUS41 KPBZ 280910 AAA
TAFPIT
TAF AMD
KPIT 280910Z 2809/2912 16003KT P6SM SKC
     FM281600 12009G16KT P6SM SCT120
     FM282100 11009KT P6SM BKN035
     FM290100 09006KT P6SM VCSH BKN025=

USA.gov is the U.S. government's official web portal to all federal, state and local government web resources and services.